Time;durP1;ratioP1;P1;durP2;ratioP2;P2;SDS_P1;SDS_P2;PMS_P1;PMS_P2;Temp;Humidity;BMP_temperature;BMP_pressure;BME280_temperature;BME280_humidity;BME280_pressure;Samples;Min_cycle;Max_cycle;Signal;HPM_P1;HPM_P2
2023/02/21 02:13:58;;;;;;;4.30;2.40;;;;;;;;;;768201;183;920111;-73
2023/02/21 02:16:40;;;;;;;6.07;2.90;;;;;;;;;;766318;181;820098;-67
2023/02/21 02:19:21;;;;;;;3.80;2.50;;;;;;;;;;771965;179;917952;-66
2023/02/21 02:21:47;;;;;;;4.00;2.63;;;;;;;;;;768112;179;918987;-65
2023/02/21 02:24:18;;;;;;;6.57;3.10;;;;;;;;;;767199;181;918358;-75
2023/02/21 02:26:50;;;;;;;4.90;2.10;;;;;;;;;;767601;180;919705;-74
2023/02/21 02:29:24;;;;;;;3.67;2.23;;;;;;;;;;779118;181;815175;-67
2023/02/21 02:31:48;;;;;;;5.23;3.37;;;;;;;;;;771801;180;919356;-67
2023/02/21 02:34:20;;;;;;;6.07;2.33;;;;;;;;;;771881;180;917774;-76
2023/02/21 02:36:51;;;;;;;5.77;3.13;;;;;;;;;;772487;179;918589;-74
2023/02/21 02:39:36;;;;;;;13.30;2.93;;;;;;;;;;771654;179;918298;-67
2023/02/21 02:42:08;;;;;;;6.70;2.90;;;;;;;;;;763580;183;918033;-73
2023/02/21 02:44:36;;;;;;;6.80;2.87;;;;;;;;;;765766;182;918565;-74
2023/02/21 02:47:00;;;;;;;4.17;2.37;;;;;;;;;;773478;181;916687;-73
2023/02/21 02:49:26;;;;;;;5.03;2.83;;;;;;;;;;775243;180;915917;-66
2023/02/21 02:51:51;;;;;;;4.57;3.33;;;;;;;;;;776360;181;919249;-65
2023/02/21 02:54:17;;;;;;;5.73;3.43;;;;;;;;;;761809;180;918543;-73
2023/02/21 02:56:43;;;;;;;4.55;2.70;;;;;;;;;;765999;180;919223;-67
2023/02/21 02:59:09;;;;;;;7.37;3.20;;;;;;;;;;765234;182;919090;-66
2023/02/21 03:01:39;;;;;;;8.67;3.47;;;;;;;;;;763831;179;921689;-66
2023/02/21 03:04:05;;;;;;;5.40;3.10;;;;;;;;;;766444;180;920076;-73
2023/02/21 03:06:46;;;;;;;7.23;2.50;;;;;;;;;;764938;182;921641;-73
2023/02/21 03:09:12;;;;;;;8.73;3.47;;;;;;;;;;759353;181;920277;-74
2023/02/21 03:11:38;;;;;;;4.87;3.60;;;;;;;;;;777156;179;919775;-67
2023/02/21 03:14:18;;;;;;;6.40;2.80;;;;;;;;;;755813;184;919645;-74
2023/02/21 03:16:46;;;;;;;7.50;3.47;;;;;;;;;;763270;182;817912;-73
2023/02/21 03:19:12;;;;;;;5.73;3.13;;;;;;;;;;769357;182;942283;-65
2023/02/21 03:21:38;;;;;;;10.53;3.30;;;;;;;;;;772918;179;915470;-66
2023/02/21 03:24:04;;;;;;;4.53;2.43;;;;;;;;;;774176;181;915986;-66
2023/02/21 03:26:30;;;;;;;6.80;2.77;;;;;;;;;;774914;181;918582;-66
2023/02/21 03:28:56;;;;;;;3.77;2.40;;;;;;;;;;771282;180;920733;-73
2023/02/21 03:31:22;;;;;;;9.07;2.83;;;;;;;;;;775001;179;916511;-66
2023/02/21 03:33:48;;;;;;;4.80;2.87;;;;;;;;;;776553;180;934563;-73
2023/02/21 03:36:14;;;;;;;4.27;2.03;;;;;;;;;;775352;180;917619;-65
2023/02/21 03:38:39;;;;;;;7.00;2.70;;;;;;;;;;771376;181;918513;-65
2023/02/21 03:41:05;;;;;;;6.90;2.97;;;;;;;;;;769573;181;1021791;-74
2023/02/21 03:43:31;;;;;;;4.97;2.63;;;;;;;;;;774521;181;918010;-66
2023/02/21 03:45:57;;;;;;;3.03;1.87;;;;;;;;;;777960;181;917823;-66
2023/02/21 03:48:23;;;;;;;2.70;2.10;;;;;;;;;;767789;181;920460;-74
2023/02/21 03:50:49;;;;;;;5.27;2.50;;;;;;;;;;769559;182;913997;-65
2023/02/21 03:53:14;;;;;;;5.43;2.67;;;;;;;;;;775741;180;917016;-73
2023/02/21 03:55:40;;;;;;;3.70;2.30;;;;;;;;;;782024;179;920842;-72
2023/02/21 03:58:06;;;;;;;3.60;2.47;;;;;;;;;;765812;181;920659;-74
2023/02/21 04:00:32;;;;;;;9.60;3.20;;;;;;;;;;769940;181;918575;-73
2023/02/21 04:02:58;;;;;;;5.47;3.00;;;;;;;;;;775597;181;918393;-74
2023/02/21 04:05:24;;;;;;;7.93;3.47;;;;;;;;;;764785;182;919500;-74
2023/02/21 04:07:49;;;;;;;6.05;2.80;;;;;;;;;;763862;181;918690;-66
2023/02/21 04:10:15;;;;;;;6.63;2.67;;;;;;;;;;777767;181;918932;-66
2023/02/21 04:12:41;;;;;;;3.80;2.63;;;;;;;;;;771391;181;916027;-66
2023/02/21 04:15:07;;;;;;;6.90;2.72;;;;;;;;;;768435;182;898368;-74
2023/02/21 04:17:33;;;;;;;6.30;3.40;;;;;;;;;;772769;181;904731;-74
2023/02/21 04:19:59;;;;;;;4.77;2.77;;;;;;;;;;773906;181;814945;-66
2023/02/21 04:22:25;;;;;;;5.83;3.50;;;;;;;;;;769118;181;918827;-66
2023/02/21 04:24:51;;;;;;;4.13;2.80;;;;;;;;;;770351;181;916435;-66
2023/02/21 04:27:17;;;;;;;5.90;3.33;;;;;;;;;;772815;182;917393;-74
2023/02/21 04:29:42;;;;;;;5.83;2.93;;;;;;;;;;763380;181;919276;-72
2023/02/21 04:32:08;;;;;;;6.57;3.40;;;;;;;;;;770707;181;917001;-66
2023/02/21 04:34:34;;;;;;;5.20;3.00;;;;;;;;;;771507;181;919084;-67
2023/02/21 04:37:00;;;;;;;4.60;2.63;;;;;;;;;;772288;181;918284;-74
2023/02/21 04:39:26;;;;;;;6.73;3.73;;;;;;;;;;773012;180;918139;-68
2023/02/21 04:41:52;;;;;;;5.03;3.13;;;;;;;;;;778873;180;918533;-77
2023/02/21 04:44:17;;;;;;;6.70;3.13;;;;;;;;;;776872;179;919957;-67
2023/02/21 04:46:43;;;;;;;7.67;2.80;;;;;;;;;;771189;180;996293;-73
2023/02/21 04:49:09;;;;;;;5.70;3.70;;;;;;;;;;770250;181;1025326;-67
2023/02/21 04:51:35;;;;;;;5.57;3.93;;;;;;;;;;775123;181;913232;-76
2023/02/21 04:54:01;;;;;;;5.37;3.00;;;;;;;;;;763451;180;915543;-65
2023/02/21 04:56:27;;;;;;;7.10;2.73;;;;;;;;;;770523;180;1017854;-66
2023/02/21 04:58:53;;;;;;;5.67;3.10;;;;;;;;;;772217;181;919339;-65
2023/02/21 05:01:18;;;;;;;6.63;3.03;;;;;;;;;;770027;180;917723;-74
2023/02/21 05:03:44;;;;;;;8.73;3.23;;;;;;;;;;769719;181;919550;-74
2023/02/21 05:06:10;;;;;;;5.60;3.17;;;;;;;;;;775515;180;910040;-74
2023/02/21 05:08:36;;;;;;;9.63;3.23;;;;;;;;;;769871;181;919001;-74
2023/02/21 05:11:02;;;;;;;6.70;2.73;;;;;;;;;;769131;179;919523;-74
2023/02/21 05:13:28;;;;;;;5.40;2.87;;;;;;;;;;769216;180;918995;-73
2023/02/21 05:15:53;;;;;;;5.23;3.27;;;;;;;;;;772463;178;917662;-74
2023/02/21 05:18:22;;;;;;;8.30;4.80;;;;;;;;;;767794;179;917228;-67
2023/02/21 05:20:45;;;;;;;6.18;3.10;;;;;;;;;;770700;180;919132;-75
2023/02/21 05:23:11;;;;;;;5.23;3.27;;;;;;;;;;772814;181;887083;-67
2023/02/21 05:25:37;;;;;;;4.97;2.87;;;;;;;;;;766221;182;915062;-78
2023/02/21 05:28:03;;;;;;;5.33;3.00;;;;;;;;;;766137;182;918278;-74
2023/02/21 05:30:28;;;;;;;7.80;3.53;;;;;;;;;;775150;181;919257;-66
2023/02/21 05:32:54;;;;;;;7.68;3.40;;;;;;;;;;767253;181;919022;-67
2023/02/21 05:35:20;;;;;;;4.00;2.70;;;;;;;;;;770808;181;917393;-74
2023/02/21 05:37:46;;;;;;;7.03;3.73;;;;;;;;;;774415;181;919351;-67
2023/02/21 05:40:12;;;;;;;6.97;3.73;;;;;;;;;;767292;180;919649;-70
2023/02/21 05:42:38;;;;;;;6.67;3.67;;;;;;;;;;767240;180;920335;-67
2023/02/21 05:45:05;;;;;;;8.07;3.53;;;;;;;;;;772518;182;775721;-74
2023/02/21 05:47:29;;;;;;;6.70;3.37;;;;;;;;;;776861;181;817864;-74
2023/02/21 05:49:55;;;;;;;7.00;4.10;;;;;;;;;;771906;180;918302;-74
2023/02/21 05:52:21;;;;;;;6.37;3.35;;;;;;;;;;771760;180;817555;-74
2023/02/21 05:54:47;;;;;;;8.63;3.40;;;;;;;;;;779744;180;913918;-66
2023/02/21 05:57:13;;;;;;;6.30;3.07;;;;;;;;;;769817;180;918327;-66
2023/02/21 05:59:39;;;;;;;5.80;3.60;;;;;;;;;;770271;180;911532;-73
2023/02/21 06:02:04;;;;;;;5.93;3.30;;;;;;;;;;781443;180;817641;-66
2023/02/21 06:04:30;;;;;;;5.65;3.20;;;;;;;;;;774661;180;916601;-73
2023/02/21 06:06:56;;;;;;;6.43;3.50;;;;;;;;;;772463;180;912804;-67
2023/02/21 06:09:22;;;;;;;6.43;4.13;;;;;;;;;;764271;182;936262;-67
2023/02/21 06:11:48;;;;;;;7.63;3.40;;;;;;;;;;764222;184;919872;-74
2023/02/21 06:14:14;;;;;;;9.03;3.40;;;;;;;;;;771226;180;1016325;-66
2023/02/21 06:16:40;;;;;;;6.47;3.70;;;;;;;;;;771723;181;922193;-67
2023/02/21 06:19:07;;;;;;;10.17;3.70;;;;;;;;;;778126;181;918332;-72
2023/02/21 06:21:32;;;;;;;4.87;3.17;;;;;;;;;;773707;181;918255;-74
2023/02/21 06:23:58;;;;;;;6.30;3.53;;;;;;;;;;772780;180;915620;-66
2023/02/21 06:26:24;;;;;;;9.73;4.03;;;;;;;;;;784597;181;26583;-66
2023/02/21 06:28:50;;;;;;;10.80;3.20;;;;;;;;;;768327;179;917285;-74
2023/02/21 06:31:15;;;;;;;7.80;3.40;;;;;;;;;;768498;181;919309;-67
2023/02/21 06:33:41;;;;;;;4.90;3.13;;;;;;;;;;767414;182;919342;-73
2023/02/21 06:36:08;;;;;;;5.35;3.30;;;;;;;;;;768806;183;919517;-76
2023/02/21 06:38:33;;;;;;;5.90;3.07;;;;;;;;;;770172;182;845094;-66
2023/02/21 06:40:59;;;;;;;11.13;3.30;;;;;;;;;;771544;181;918838;-74
2023/02/21 06:43:25;;;;;;;5.97;3.90;;;;;;;;;;775114;179;817406;-67
2023/02/21 06:45:51;;;;;;;5.70;3.53;;;;;;;;;;769395;180;918839;-66
2023/02/21 06:48:17;;;;;;;7.57;3.87;;;;;;;;;;770650;181;921382;-70
2023/02/21 06:50:43;;;;;;;6.70;3.90;;;;;;;;;;775273;181;999608;-74
2023/02/21 06:53:08;;;;;;;7.00;4.13;;;;;;;;;;770916;180;919127;-67
2023/02/21 06:55:34;;;;;;;7.03;3.87;;;;;;;;;;771043;180;923881;-75
2023/02/21 06:58:00;;;;;;;7.07;3.50;;;;;;;;;;757403;183;920270;-66
2023/02/21 07:00:26;;;;;;;6.30;3.30;;;;;;;;;;766510;182;920301;-66
2023/02/21 07:02:52;;;;;;;6.83;3.73;;;;;;;;;;773253;181;919662;-65
2023/02/21 07:05:18;;;;;;;8.40;3.90;;;;;;;;;;768712;179;918872;-74
2023/02/21 07:07:44;;;;;;;6.97;4.40;;;;;;;;;;778679;179;918988;-66
2023/02/21 07:10:09;;;;;;;9.32;4.47;;;;;;;;;;771910;181;919588;-74
2023/02/21 07:12:35;;;;;;;9.83;4.00;;;;;;;;;;767206;181;919243;-76
2023/02/21 07:15:01;;;;;;;6.90;4.17;;;;;;;;;;774219;181;918014;-73
2023/02/21 07:17:27;;;;;;;8.30;3.60;;;;;;;;;;766222;181;922208;-67
2023/02/21 07:19:53;;;;;;;7.03;3.50;;;;;;;;;;763526;181;920244;-67
2023/02/21 07:22:24;;;;;;;6.13;3.60;;;;;;;;;;769355;180;816985;-66
2023/02/21 07:24:44;;;;;;;9.20;3.60;;;;;;;;;;767880;181;918998;-67
2023/02/21 07:27:10;;;;;;;5.07;2.93;;;;;;;;;;776542;180;918825;-74
2023/02/21 07:29:36;;;;;;;6.17;3.10;;;;;;;;;;773789;180;918811;-67
2023/02/21 07:32:02;;;;;;;5.90;3.43;;;;;;;;;;775800;177;918376;-68
2023/02/21 07:34:28;;;;;;;5.57;3.80;;;;;;;;;;765794;181;922128;-74
2023/02/21 07:36:54;;;;;;;7.40;3.30;;;;;;;;;;771730;179;915171;-67
2023/02/21 07:39:19;;;;;;;5.57;3.50;;;;;;;;;;772909;179;907846;-66
2023/02/21 07:41:45;;;;;;;13.17;4.37;;;;;;;;;;771845;181;914909;-74
2023/02/21 07:44:11;;;;;;;7.03;2.97;;;;;;;;;;769727;180;915757;-73
2023/02/21 07:46:37;;;;;;;6.80;3.63;;;;;;;;;;777023;180;920234;-66
2023/02/21 07:49:03;;;;;;;5.73;3.83;;;;;;;;;;767881;181;918867;-66
2023/02/21 07:51:29;;;;;;;6.30;3.30;;;;;;;;;;765656;179;919270;-73
2023/02/21 07:53:54;;;;;;;8.10;3.23;;;;;;;;;;765155;181;919250;-72
2023/02/21 07:56:20;;;;;;;5.63;3.60;;;;;;;;;;769643;179;816542;-65
2023/02/21 07:58:46;;;;;;;6.37;3.60;;;;;;;;;;766665;181;920247;-74
2023/02/21 08:01:12;;;;;;;4.80;3.07;;;;;;;;;;771416;180;919548;-73
2023/02/21 08:03:39;;;;;;;9.87;3.17;;;;;;;;;;776526;181;918747;-74
2023/02/21 08:06:04;;;;;;;4.83;2.43;;;;;;;;;;764669;181;919168;-66
2023/02/21 08:08:30;;;;;;;6.50;3.30;;;;;;;;;;766400;181;906609;-73
2023/02/21 08:10:55;;;;;;;5.73;3.60;;;;;;;;;;775351;181;921536;-66
2023/02/21 08:13:21;;;;;;;7.33;3.13;;;;;;;;;;764788;181;820624;-65
2023/02/21 08:15:47;;;;;;;6.80;3.73;;;;;;;;;;772953;179;918169;-66
2023/02/21 08:18:17;;;;;;;4.17;3.17;;;;;;;;;;772674;180;815686;-74
2023/02/21 08:20:40;;;;;;;12.20;3.93;;;;;;;;;;763433;180;843347;-74
2023/02/21 08:23:06;;;;;;;7.23;3.87;;;;;;;;;;772604;181;851461;-65
2023/02/21 08:25:31;;;;;;;6.23;3.33;;;;;;;;;;774739;181;716975;-72
2023/02/21 08:27:57;;;;;;;6.00;3.67;;;;;;;;;;778574;180;811020;-66
2023/02/21 08:30:24;;;;;;;4.95;2.80;;;;;;;;;;768724;180;915078;-74
2023/02/21 08:32:50;;;;;;;5.00;2.80;;;;;;;;;;772436;181;917364;-66
2023/02/21 08:35:15;;;;;;;5.27;3.30;;;;;;;;;;773580;181;903182;-73
2023/02/21 08:37:44;;;;;;;5.23;3.40;;;;;;;;;;773739;181;882813;-66
2023/02/21 08:40:10;;;;;;;5.80;3.87;;;;;;;;;;764823;180;892198;-75
2023/02/21 08:42:35;;;;;;;9.10;2.97;;;;;;;;;;768550;179;920040;-67
2023/02/21 08:45:01;;;;;;;5.53;3.60;;;;;;;;;;760675;183;918648;-75
2023/02/21 08:47:27;;;;;;;9.40;3.83;;;;;;;;;;764580;181;917621;-74
2023/02/21 08:49:53;;;;;;;7.07;4.32;;;;;;;;;;768233;179;918259;-74
2023/02/21 08:52:20;;;;;;;9.10;4.30;;;;;;;;;;775220;181;918614;-75
2023/02/21 08:54:45;;;;;;;7.17;3.87;;;;;;;;;;772283;179;915315;-76
2023/02/21 08:57:11;;;;;;;7.80;3.90;;;;;;;;;;768335;180;917825;-67
2023/02/21 08:59:41;;;;;;;5.23;3.43;;;;;;;;;;770022;180;919189;-74
2023/02/21 09:02:11;;;;;;;5.03;3.63;;;;;;;;;;769966;180;923313;-66
2023/02/21 09:04:32;;;;;;;5.90;3.17;;;;;;;;;;770883;180;919401;-67
2023/02/21 09:06:58;;;;;;;4.30;3.50;;;;;;;;;;772725;179;915518;-74
2023/02/21 09:09:24;;;;;;;6.73;4.00;;;;;;;;;;780955;180;893593;-74
2023/02/21 09:11:50;;;;;;;7.20;3.83;;;;;;;;;;779979;179;908852;-67
2023/02/21 09:14:16;;;;;;;8.40;4.97;;;;;;;;;;764789;180;912537;-68
2023/02/21 09:16:41;;;;;;;7.30;4.17;;;;;;;;;;777509;181;916564;-64
2023/02/21 09:19:07;;;;;;;7.93;4.00;;;;;;;;;;774730;179;816974;-74
2023/02/21 09:21:33;;;;;;;6.63;4.23;;;;;;;;;;767333;181;918716;-75
2023/02/21 09:24:01;;;;;;;8.87;4.07;;;;;;;;;;777203;181;918325;-67
2023/02/21 09:26:25;;;;;;;9.90;4.80;;;;;;;;;;773607;181;915652;-67
2023/02/21 09:28:51;;;;;;;6.33;4.00;;;;;;;;;;770332;180;817815;-67
2023/02/21 09:31:16;;;;;;;9.00;4.87;;;;;;;;;;767182;182;919133;-67
2023/02/21 09:33:42;;;;;;;5.40;3.93;;;;;;;;;;769288;181;917001;-66
2023/02/21 09:36:08;;;;;;;6.80;3.97;;;;;;;;;;770171;180;815968;-75
2023/02/21 09:38:34;;;;;;;6.37;4.37;;;;;;;;;;773332;180;816174;-74
2023/02/21 09:41:00;;;;;;;5.80;4.00;;;;;;;;;;774482;180;916329;-67
2023/02/21 09:43:31;;;;;;;6.35;3.90;;;;;;;;;;766633;181;918033;-74
2023/02/21 09:45:57;;;;;;;7.20;3.60;;;;;;;;;;768602;181;917682;-67
2023/02/21 09:48:23;;;;;;;7.40;3.77;;;;;;;;;;777409;180;919262;-66
2023/02/21 09:50:49;;;;;;;5.53;3.60;;;;;;;;;;775786;179;919163;-67
2023/02/21 09:53:31;;;;;;;8.33;3.90;;;;;;;;;;762512;181;918170;-74
2023/02/21 09:55:57;;;;;;;10.53;4.00;;;;;;;;;;768508;180;857440;-67
2023/02/21 09:58:23;;;;;;;6.20;3.57;;;;;;;;;;770348;182;912622;-67
2023/02/21 10:00:48;;;;;;;6.90;3.67;;;;;;;;;;772971;179;1023755;-67
2023/02/21 10:03:14;;;;;;;4.83;3.37;;;;;;;;;;767909;181;822282;-67
2023/02/21 10:05:41;;;;;;;7.53;3.22;;;;;;;;;;773246;180;918722;-67
2023/02/21 10:08:10;;;;;;;5.13;3.63;;;;;;;;;;776810;181;816092;-67
2023/02/21 10:10:36;;;;;;;5.27;3.50;;;;;;;;;;776930;180;631009;-74
2023/02/21 10:13:06;;;;;;;7.67;3.97;;;;;;;;;;775251;178;919054;-75
2023/02/21 10:15:42;;;;;;;8.43;3.73;;;;;;;;;;775845;179;633283;-74
2023/02/21 10:18:15;;;;;;;4.60;3.08;;;;;;;;;;773771;180;633198;-74
2023/02/21 10:20:40;;;;;;;5.33;3.20;;;;;;;;;;771434;181;629077;-67
2023/02/21 10:23:12;;;;;;;5.97;3.63;;;;;;;;;;774878;180;818221;-67
2023/02/21 10:25:38;;;;;;;5.10;3.57;;;;;;;;;;771164;181;942375;-76
2023/02/21 10:28:04;;;;;;;7.40;4.47;;;;;;;;;;773298;181;817267;-67
2023/02/21 10:30:30;;;;;;;6.00;3.53;;;;;;;;;;777730;178;899738;-75
2023/02/21 10:32:56;;;;;;;6.30;3.27;;;;;;;;;;768552;182;1016824;-76
2023/02/21 10:35:21;;;;;;;4.43;2.42;;;;;;;;;;773183;181;917227;-67
2023/02/21 10:37:51;;;;;;;4.90;2.70;;;;;;;;;;775077;180;918177;-75
2023/02/21 10:40:21;;;;;;;4.30;2.77;;;;;;;;;;775101;178;880905;-75
2023/02/21 10:42:49;;;;;;;5.87;2.70;;;;;;;;;;774350;180;935664;-66
2023/02/21 10:45:13;;;;;;;3.37;2.40;;;;;;;;;;771019;181;919651;-74
2023/02/21 10:47:48;;;;;;;3.83;2.25;;;;;;;;;;776733;182;918707;-73
2023/02/21 10:50:14;;;;;;;5.43;2.50;;;;;;;;;;768700;181;922310;-74
2023/02/21 10:52:43;;;;;;;4.37;3.00;;;;;;;;;;770441;181;918912;-66
2023/02/21 10:55:13;;;;;;;3.47;2.50;;;;;;;;;;771679;181;918228;-67
2023/02/21 10:57:39;;;;;;;6.47;2.80;;;;;;;;;;770771;181;918151;-75
2023/02/21 11:00:09;;;;;;;5.37;2.20;;;;;;;;;;774397;181;919272;-67
2023/02/21 11:02:34;;;;;;;6.90;2.60;;;;;;;;;;766940;179;918941;-67
2023/02/21 11:05:06;;;;;;;5.28;2.75;;;;;;;;;;771940;181;926260;-68
2023/02/21 11:07:32;;;;;;;5.27;2.97;;;;;;;;;;775888;179;917671;-74
2023/02/21 11:09:58;;;;;;;3.10;1.97;;;;;;;;;;772541;180;922069;-68
2023/02/21 11:12:25;;;;;;;5.40;2.50;;;;;;;;;;773676;180;923153;-74
2023/02/21 11:15:05;;;;;;;3.87;2.60;;;;;;;;;;778824;180;803558;-68
2023/02/21 11:17:31;;;;;;;4.67;2.37;;;;;;;;;;764640;180;919364;-75
2023/02/21 11:19:57;;;;;;;3.63;2.40;;;;;;;;;;766383;182;918064;-67
2023/02/21 11:22:31;;;;;;;5.45;2.40;;;;;;;;;;772265;181;918627;-74
2023/02/21 11:24:57;;;;;;;4.17;2.83;;;;;;;;;;769366;181;918001;-67
2023/02/21 11:27:23;;;;;;;4.28;2.50;;;;;;;;;;775880;180;918138;-75
2023/02/21 11:29:49;;;;;;;3.53;2.03;;;;;;;;;;768692;181;912570;-67
2023/02/21 11:32:25;;;;;;;3.33;1.60;;;;;;;;;;768936;180;920943;-67
2023/02/21 11:34:51;;;;;;;3.37;2.17;;;;;;;;;;766059;181;919810;-72
2023/02/21 11:37:17;;;;;;;12.80;2.27;;;;;;;;;;772581;182;918902;-75
2023/02/21 11:39:42;;;;;;;4.30;2.07;;;;;;;;;;774017;181;987979;-66
2023/02/21 11:42:25;;;;;;;3.83;2.10;;;;;;;;;;766490;179;923793;-66
2023/02/21 11:44:51;;;;;;;3.80;2.33;;;;;;;;;;766373;182;918623;-67
2023/02/21 11:47:22;;;;;;;3.80;2.40;;;;;;;;;;770600;182;922622;-67
2023/02/21 11:49:53;;;;;;;4.87;2.33;;;;;;;;;;769673;182;935326;-73
2023/02/21 11:52:20;;;;;;;5.00;2.67;;;;;;;;;;773129;179;915969;-74
2023/02/21 11:54:46;;;;;;;2.83;2.03;;;;;;;;;;772455;179;928456;-67
2023/02/21 11:57:14;;;;;;;3.53;2.10;;;;;;;;;;769605;182;816418;-73
2023/02/21 11:59:57;;;;;;;3.30;2.07;;;;;;;;;;762892;179;919226;-67
2023/02/21 12:02:39;;;;;;;3.17;1.83;;;;;;;;;;767092;179;815737;-68
2023/02/21 12:05:25;;;;;;;3.63;2.20;;;;;;;;;;763245;180;918206;-75
2023/02/21 12:08:11;;;;;;;3.43;2.10;;;;;;;;;;776262;181;919925;-73
2023/02/21 12:10:43;;;;;;;5.53;2.30;;;;;;;;;;771801;181;815214;-65
2023/02/21 12:13:21;;;;;;;3.30;2.20;;;;;;;;;;775329;180;842676;-67
2023/02/21 12:16:04;;;;;;;3.20;1.90;;;;;;;;;;772982;181;918944;-73
2023/02/21 12:18:35;;;;;;;6.60;2.40;;;;;;;;;;772246;180;1021210;-67
2023/02/21 12:21:06;;;;;;;4.67;2.40;;;;;;;;;;763430;179;917224;-67
2023/02/21 12:23:36;;;;;;;3.40;1.87;;;;;;;;;;769473;182;918596;-67
2023/02/21 12:26:06;;;;;;;3.20;2.10;;;;;;;;;;777742;180;913317;-67
2023/02/21 12:28:32;;;;;;;5.77;2.23;;;;;;;;;;768878;181;911970;-75
2023/02/21 12:30:58;;;;;;;3.50;1.93;;;;;;;;;;766702;180;920246;-67
2023/02/21 12:33:39;;;;;;;3.80;2.12;;;;;;;;;;769718;181;1018067;-75
2023/02/21 12:36:11;;;;;;;7.80;2.60;;;;;;;;;;755344;184;919243;-67
2023/02/21 12:38:35;;;;;;;4.00;2.00;;;;;;;;;;765881;184;918939;-67
2023/02/21 12:41:16;;;;;;;4.37;2.47;;;;;;;;;;766431;181;933001;-68
2023/02/21 12:43:43;;;;;;;3.90;2.40;;;;;;;;;;767685;181;816675;-68
2023/02/21 12:46:15;;;;;;;5.80;2.77;;;;;;;;;;775995;180;918557;-74
2023/02/21 12:48:45;;;;;;;5.53;2.60;;;;;;;;;;773431;181;918427;-68
2023/02/21 12:51:13;;;;;;;6.03;2.80;;;;;;;;;;769350;182;917028;-73
2023/02/21 12:53:41;;;;;;;8.00;3.70;;;;;;;;;;756409;183;1002120;-74
2023/02/21 12:56:07;;;;;;;3.95;2.78;;;;;;;;;;766500;180;917825;-74
2023/02/21 12:58:35;;;;;;;3.90;2.57;;;;;;;;;;776045;180;916509;-66
2023/02/21 13:01:01;;;;;;;5.77;2.67;;;;;;;;;;772547;182;916838;-73
2023/02/21 13:03:30;;;;;;;4.07;2.33;;;;;;;;;;766867;181;816138;-65
2023/02/21 13:05:57;;;;;;;8.60;4.95;;;;;;;;;;771824;181;916105;-66
2023/02/21 13:08:27;;;;;;;5.62;3.20;;;;;;;;;;774170;181;917107;-74
2023/02/21 13:10:53;;;;;;;4.93;2.70;;;;;;;;;;770960;181;918765;-66
2023/02/21 13:13:21;;;;;;;5.80;3.00;;;;;;;;;;772824;181;919756;-67
2023/02/21 13:15:47;;;;;;;4.73;3.10;;;;;;;;;;773170;181;915569;-67
2023/02/21 13:18:16;;;;;;;5.28;2.92;;;;;;;;;;773181;181;918543;-67
2023/02/21 13:20:43;;;;;;;3.73;2.60;;;;;;;;;;771720;181;918783;-68
2023/02/21 13:23:14;;;;;;;4.70;2.63;;;;;;;;;;771227;181;919405;-72
2023/02/21 13:25:41;;;;;;;4.43;2.80;;;;;;;;;;765583;181;918680;-74
2023/02/21 13:28:10;;;;;;;6.23;3.03;;;;;;;;;;774487;181;915911;-76
2023/02/21 13:30:37;;;;;;;4.60;3.20;;;;;;;;;;765904;181;919821;-67
2023/02/21 13:33:03;;;;;;;5.60;2.97;;;;;;;;;;769354;182;919983;-74
2023/02/21 13:35:30;;;;;;;4.40;3.67;;;;;;;;;;775688;181;818005;-67
2023/02/21 13:37:56;;;;;;;4.63;3.33;;;;;;;;;;772871;181;919043;-75
2023/02/21 13:40:22;;;;;;;5.90;4.07;;;;;;;;;;772133;181;915653;-75
2023/02/21 13:42:48;;;;;;;5.10;3.10;;;;;;;;;;771057;181;915201;-67
2023/02/21 13:45:14;;;;;;;7.10;3.37;;;;;;;;;;775358;181;922786;-74
2023/02/21 13:47:46;;;;;;;4.47;3.20;;;;;;;;;;776053;180;807307;-74
2023/02/21 13:50:26;;;;;;;5.60;3.60;;;;;;;;;;772226;181;921396;-68
2023/02/21 13:52:53;;;;;;;4.00;3.37;;;;;;;;;;773176;180;816488;-74
2023/02/21 13:55:20;;;;;;;4.80;3.30;;;;;;;;;;774010;181;827478;-67
2023/02/21 13:57:48;;;;;;;5.53;3.63;;;;;;;;;;764461;182;919498;-67
2023/02/21 14:00:19;;;;;;;5.90;4.17;;;;;;;;;;764331;180;920182;-67
2023/02/21 14:02:51;;;;;;;12.30;4.50;;;;;;;;;;769012;181;1003834;-75
2023/02/21 14:05:17;;;;;;;5.65;3.90;;;;;;;;;;774322;181;845779;-74
2023/02/21 14:07:43;;;;;;;6.40;4.00;;;;;;;;;;767801;181;946159;-67
2023/02/21 14:10:12;;;;;;;5.10;3.70;;;;;;;;;;768375;180;916980;-74
2023/02/21 14:12:38;;;;;;;6.43;4.60;;;;;;;;;;773295;180;875407;-67
2023/02/21 14:15:05;;;;;;;5.35;3.75;;;;;;;;;;773298;179;888852;-67
2023/02/21 14:17:30;;;;;;;6.00;3.43;;;;;;;;;;771855;180;1021460;-67
2023/02/21 14:19:58;;;;;;;5.40;3.77;;;;;;;;;;772701;180;923689;-67
2023/02/21 14:22:24;;;;;;;6.13;3.43;;;;;;;;;;776752;180;918881;-67
2023/02/21 14:24:50;;;;;;;5.73;4.00;;;;;;;;;;771575;181;917200;-68
2023/02/21 14:27:30;;;;;;;4.80;3.90;;;;;;;;;;772983;180;909138;-74
2023/02/21 14:30:13;;;;;;;4.40;3.50;;;;;;;;;;765421;181;910103;-74
2023/02/21 14:32:41;;;;;;;5.73;4.23;;;;;;;;;;772679;179;990315;-74
2023/02/21 14:35:13;;;;;;;7.43;3.60;;;;;;;;;;772148;181;920258;-67
2023/02/21 14:37:38;;;;;;;6.37;4.37;;;;;;;;;;778195;179;918541;-68
2023/02/21 14:40:21;;;;;;;5.77;4.27;;;;;;;;;;773743;180;918527;-75
2023/02/21 14:42:52;;;;;;;5.60;4.40;;;;;;;;;;774662;180;917975;-67
2023/02/21 14:45:20;;;;;;;5.63;3.63;;;;;;;;;;767444;179;922070;-67
2023/02/21 14:48:00;;;;;;;5.90;4.30;;;;;;;;;;767897;181;916223;-66
2023/02/21 14:50:31;;;;;;;6.90;4.50;;;;;;;;;;771380;181;921718;-67
2023/02/21 14:53:00;;;;;;;6.87;4.37;;;;;;;;;;776058;181;902000;-75
2023/02/21 14:55:32;;;;;;;9.93;4.40;;;;;;;;;;773465;181;816759;-74
2023/02/21 14:58:03;;;;;;;9.13;5.30;;;;;;;;;;771506;180;1009907;-67
2023/02/21 15:00:45;;;;;;;10.60;4.80;;;;;;;;;;769589;179;920560;-67
2023/02/21 15:03:12;;;;;;;7.00;5.17;;;;;;;;;;769442;181;909832;-66
2023/02/21 15:05:47;;;;;;;9.63;5.33;;;;;;;;;;775421;181;923970;-74
2023/02/21 15:08:16;;;;;;;8.53;5.60;;;;;;;;;;769874;181;920502;-67
2023/02/21 15:10:42;;;;;;;9.03;6.17;;;;;;;;;;764001;180;919215;-74
2023/02/21 15:13:14;;;;;;;6.07;5.27;;;;;;;;;;771541;180;918884;-75
2023/02/21 15:15:40;;;;;;;8.30;4.83;;;;;;;;;;766525;182;923988;-74
2023/02/21 15:18:06;;;;;;;7.03;4.70;;;;;;;;;;776139;180;820794;-74
2023/02/21 15:20:32;;;;;;;11.13;6.20;;;;;;;;;;769465;180;919771;-67
2023/02/21 15:23:02;;;;;;;7.80;6.00;;;;;;;;;;769984;181;919730;-74
2023/02/21 15:25:28;;;;;;;8.40;5.83;;;;;;;;;;769078;182;907879;-70
2023/02/21 15:27:54;;;;;;;6.90;6.20;;;;;;;;;;777245;179;919600;-67
2023/02/21 15:30:21;;;;;;;11.77;6.40;;;;;;;;;;776964;180;849650;-74
2023/02/21 15:32:51;;;;;;;7.27;5.63;;;;;;;;;;773359;180;817067;-66
2023/02/21 15:35:17;;;;;;;8.17;5.97;;;;;;;;;;775123;179;815991;-66
2023/02/21 15:37:42;;;;;;;7.73;6.00;;;;;;;;;;768009;181;918732;-73
2023/02/21 15:40:13;;;;;;;9.60;5.73;;;;;;;;;;772809;181;916373;-66
2023/02/21 15:42:38;;;;;;;8.60;5.80;;;;;;;;;;777234;179;815809;-67
2023/02/21 15:45:05;;;;;;;7.27;5.63;;;;;;;;;;772723;179;815744;-72
2023/02/21 15:47:31;;;;;;;7.17;5.50;;;;;;;;;;768753;181;818797;-72
2023/02/21 15:49:58;;;;;;;14.53;12.97;;;;;;;;;;769998;181;1022044;-67
2023/02/21 15:52:24;;;;;;;6.63;5.20;;;;;;;;;;775100;180;914242;-66
2023/02/21 15:54:50;;;;;;;6.80;5.57;;;;;;;;;;771975;181;877944;-73
2023/02/21 15:57:16;;;;;;;10.70;5.70;;;;;;;;;;773721;179;903980;-73
2023/02/21 15:59:42;;;;;;;5.90;5.30;;;;;;;;;;773207;181;920108;-65
2023/02/21 16:02:13;;;;;;;9.37;4.20;;;;;;;;;;770610;181;919129;-74
2023/02/21 16:04:39;;;;;;;9.40;6.87;;;;;;;;;;772152;181;917620;-74
2023/02/21 16:07:05;;;;;;;8.20;7.00;;;;;;;;;;771836;180;919398;-73
2023/02/21 16:09:33;;;;;;;7.60;5.90;;;;;;;;;;773766;179;912826;-73
2023/02/21 16:11:57;;;;;;;9.10;5.90;;;;;;;;;;768995;180;920147;-66
2023/02/21 16:14:23;;;;;;;12.30;7.93;;;;;;;;;;763824;180;922308;-66
2023/02/21 16:16:52;;;;;;;10.13;6.40;;;;;;;;;;772851;181;816145;-66
2023/02/21 16:19:15;;;;;;;9.97;6.07;;;;;;;;;;763479;181;918971;-73
2023/02/21 16:21:40;;;;;;;7.13;5.20;;;;;;;;;;767650;180;919488;-73
2023/02/21 16:24:12;;;;;;;6.43;4.93;;;;;;;;;;769641;181;948783;-72
2023/02/21 16:26:38;;;;;;;6.17;5.50;;;;;;;;;;768410;178;817958;-66
2023/02/21 16:29:05;;;;;;;4.85;4.35;;;;;;;;;;769732;181;918986;-66
2023/02/21 16:31:30;;;;;;;5.67;5.00;;;;;;;;;;772970;180;853178;-65
2023/02/21 16:33:56;;;;;;;5.87;5.10;;;;;;;;;;776628;181;894509;-66
2023/02/21 16:36:24;;;;;;;5.90;4.90;;;;;;;;;;769792;180;918076;-65
2023/02/21 16:38:50;;;;;;;6.80;5.50;;;;;;;;;;772436;179;915934;-75
2023/02/21 16:41:16;;;;;;;7.47;4.60;;;;;;;;;;773546;179;1017458;-73
2023/02/21 16:43:42;;;;;;;7.60;4.90;;;;;;;;;;770031;179;813533;-73